createdAt,value
2019-04-01T00:04:36.668Z,1.03
2019-04-01T00:09:38.299Z,1.00
2019-04-01T00:14:40.001Z,1.17
2019-04-01T00:19:41.725Z,0.77
2019-04-01T00:24:43.422Z,1.17
2019-04-01T00:29:45.091Z,0.90
2019-04-01T00:34:46.623Z,0.97
2019-04-01T00:39:48.307Z,1.00
2019-04-01T00:44:49.987Z,0.90
2019-04-01T00:49:51.689Z,1.00
2019-04-01T00:54:53.385Z,0.90
2019-04-01T00:59:55.082Z,1.27
2019-04-01T01:04:56.633Z,1.33
2019-04-01T01:09:58.288Z,1.07
2019-04-01T01:14:59.871Z,0.93
2019-04-01T01:20:01.678Z,1.03
2019-04-01T01:25:03.514Z,0.70
2019-04-01T01:30:05.435Z,0.90
2019-04-01T01:35:07.123Z,0.80
2019-04-01T01:40:09.268Z,1.00
2019-04-01T01:45:10.955Z,1.30
2019-04-01T01:50:12.654Z,1.13
2019-04-01T01:55:14.203Z,1.27
2019-04-01T02:00:16.079Z,1.10
2019-04-01T02:05:17.740Z,1.20
2019-04-01T02:10:19.405Z,0.80
2019-04-01T02:15:21.073Z,1.60
2019-04-01T02:20:22.747Z,1.30
2019-04-01T02:25:24.453Z,1.23
2019-04-01T02:30:26.025Z,1.33
2019-04-01T02:35:27.865Z,1.10
2019-04-01T02:40:29.519Z,1.43
2019-04-01T02:45:31.193Z,1.60
2019-04-01T02:50:32.912Z,1.83
2019-04-01T02:55:34.556Z,1.30
2019-04-01T03:00:36.203Z,1.20
2019-04-01T03:05:37.895Z,1.17
2019-04-01T03:10:39.589Z,1.10
2019-04-01T03:15:41.257Z,1.20
2019-04-01T03:20:42.925Z,1.60
2019-04-01T03:25:44.608Z,2.97
2019-04-01T03:30:46.292Z,1.90
2019-04-01T03:35:47.930Z,1.13
2019-04-01T03:40:49.662Z,1.43
2019-04-01T03:45:51.360Z,1.17
2019-04-01T03:50:53.080Z,1.43
2019-04-01T03:55:54.753Z,1.00
2019-04-01T04:00:56.424Z,1.30
2019-04-01T04:05:58.145Z,1.30
2019-04-01T04:10:59.843Z,1.20
2019-04-01T04:16:01.417Z,1.37
2019-04-01T04:21:03.190Z,1.30
2019-04-01T04:26:05.575Z,1.60
2019-04-01T04:31:07.284Z,1.37
2019-04-01T04:36:08.953Z,1.87
2019-04-01T04:41:10.652Z,1.60
2019-04-01T04:46:12.386Z,1.63
2019-04-01T04:51:14.127Z,1.40
2019-04-01T04:56:15.865Z,1.50
2019-04-01T05:01:17.538Z,1.63
2019-04-01T05:06:19.099Z,1.37
2019-04-01T05:11:20.816Z,1.37
2019-04-01T05:16:22.474Z,1.30
2019-04-01T05:21:24.143Z,1.17
2019-04-01T05:26:25.797Z,1.13
2019-04-01T05:31:27.754Z,1.30
2019-04-01T05:36:30.827Z,1.43
2019-04-01T05:41:32.760Z,1.40
2019-04-01T05:46:34.453Z,1.67
2019-04-01T05:51:36.139Z,1.57
2019-04-01T05:56:37.890Z,1.87
2019-04-01T06:01:44.667Z,2.10
2019-04-01T06:06:48.866Z,1.87
2019-04-01T06:11:49.831Z,1.50
2019-04-01T06:16:51.933Z,1.60
2019-04-01T06:21:53.603Z,1.63
2019-04-01T06:26:55.351Z,1.73
2019-04-01T06:31:57.530Z,1.53
2019-04-01T06:36:59.168Z,2.03
2019-04-01T06:42:00.800Z,1.97
2019-04-01T06:47:02.508Z,1.90
2019-04-01T06:52:04.162Z,2.07
2019-04-01T06:57:05.818Z,2.03
2019-04-01T07:02:07.487Z,1.80
2019-04-01T07:07:19.013Z,1.57
2019-04-01T07:12:13.045Z,1.93
2019-04-01T07:17:14.576Z,2.00
2019-04-01T07:22:16.126Z,1.80
2019-04-01T07:27:17.683Z,1.60
2019-04-01T07:32:19.254Z,1.80
2019-04-01T07:37:20.955Z,1.90
2019-04-01T07:42:22.672Z,1.93
2019-04-01T07:47:24.376Z,2.17
2019-04-01T07:52:25.985Z,2.07
2019-04-01T07:57:27.940Z,1.80
2019-04-01T08:02:29.516Z,1.83
2019-04-01T08:07:31.155Z,2.07
2019-04-01T08:12:32.798Z,1.30
2019-04-01T08:17:34.434Z,1.70
2019-04-01T08:22:36.083Z,1.80
2019-04-01T08:27:37.734Z,1.90
2019-04-01T08:32:39.395Z,2.30
2019-04-01T08:37:41.049Z,2.03
2019-04-01T08:42:42.582Z,1.77
2019-04-01T08:47:44.247Z,2.00
2019-04-01T08:52:45.911Z,2.30
2019-04-01T08:57:47.563Z,1.53
2019-04-01T09:02:49.233Z,2.10
2019-04-01T09:07:50.886Z,1.67
2019-04-01T09:12:53.151Z,2.20
2019-04-01T09:17:54.828Z,1.63
2019-04-01T09:22:59.077Z,1.70
2019-04-01T09:27:59.906Z,1.80
2019-04-01T09:33:01.544Z,1.97
2019-04-01T09:38:03.211Z,1.70
2019-04-01T09:43:04.740Z,1.60
2019-04-01T09:48:06.382Z,1.90
2019-04-01T09:53:08.052Z,1.80
2019-04-01T09:58:09.737Z,1.87
2019-04-01T10:03:11.395Z,1.33
2019-04-01T10:08:13.063Z,1.50
2019-04-01T10:13:14.641Z,1.47
2019-04-01T10:18:16.205Z,1.20
2019-04-01T10:23:17.852Z,1.50
2019-04-01T10:28:19.516Z,1.30
2019-04-01T10:33:21.251Z,1.37
2019-04-01T10:38:22.817Z,1.40
2019-04-01T10:43:24.508Z,1.53
2019-04-01T10:48:26.069Z,1.47
2019-04-01T10:53:27.797Z,1.30
2019-04-01T10:58:29.400Z,1.37
2019-04-01T11:03:31.109Z,0.97
2019-04-01T11:08:32.833Z,1.53
2019-04-01T11:13:34.346Z,1.40
2019-04-01T11:18:35.852Z,1.13
2019-04-01T11:23:37.398Z,1.17
2019-04-01T11:28:39.239Z,1.22
2019-04-01T11:33:40.927Z,1.30
2019-04-01T11:38:42.948Z,1.72
2019-04-01T11:43:44.609Z,1.40
2019-04-01T11:48:46.363Z,1.52
2019-04-01T11:53:48.051Z,1.45
2019-04-01T11:58:49.758Z,1.60
2019-04-01T12:03:51.507Z,1.32
2019-04-01T12:08:53.176Z,1.50
2019-04-01T12:13:54.845Z,1.15
2019-04-01T12:18:56.380Z,1.80
2019-04-01T12:23:58.696Z,1.12
2019-04-01T12:29:00.362Z,1.20
2019-04-01T12:34:01.956Z,1.50
2019-04-01T12:39:05.824Z,1.70
2019-04-01T12:44:07.386Z,1.55
2019-04-01T12:49:09.168Z,1.70
2019-04-01T12:54:10.832Z,1.15
2019-04-01T12:59:12.432Z,1.27
2019-04-01T13:04:14.163Z,1.37
2019-04-01T13:09:15.881Z,1.50
2019-04-01T13:14:17.729Z,1.70
2019-04-01T13:19:19.496Z,1.45
2019-04-01T13:24:21.053Z,1.22
2019-04-01T13:29:24.071Z,1.00
2019-04-01T13:34:25.701Z,1.10
2019-04-01T13:39:27.361Z,1.37
2019-04-01T13:44:36.913Z,1.25
2019-04-01T13:49:32.493Z,0.98
2019-04-01T13:54:34.175Z,1.20
2019-04-01T13:59:48.357Z,1.30
2019-04-01T14:04:39.319Z,1.30
2019-04-01T14:09:41.300Z,1.67
2019-04-01T14:14:42.877Z,2.30
2019-04-01T14:19:44.458Z,1.50
2019-04-01T14:24:46.025Z,1.22
2019-04-01T14:29:47.668Z,1.20
2019-04-01T14:34:50.494Z,1.72
2019-04-01T14:39:52.442Z,1.32
2019-04-01T14:44:58.292Z,1.37
2019-04-01T14:50:00.170Z,1.60
2019-04-01T14:55:02.611Z,1.37
2019-04-01T15:00:05.771Z,1.70
2019-04-01T15:05:07.438Z,1.15
2019-04-01T15:10:09.327Z,1.20
2019-04-01T15:15:11.097Z,1.60
2019-04-01T15:20:13.859Z,1.27
2019-04-01T15:25:15.411Z,1.20
2019-04-01T15:30:17.060Z,1.00
2019-04-01T15:35:18.896Z,1.12
2019-04-01T15:40:20.542Z,1.50
2019-04-01T15:45:22.132Z,1.47
2019-04-01T15:50:28.704Z,1.47
2019-04-01T15:55:27.439Z,1.35
2019-04-01T16:00:29.086Z,1.75
2019-04-01T16:05:30.760Z,1.50
2019-04-01T16:10:32.370Z,1.15
2019-04-01T16:15:33.956Z,1.20
2019-04-01T16:20:35.512Z,2.10
2019-04-01T16:25:37.698Z,1.72
2019-04-01T16:30:39.835Z,1.70
2019-04-01T16:35:41.434Z,1.98
2019-04-01T16:40:42.982Z,2.12
2019-04-01T16:45:44.668Z,2.00
2019-04-01T16:50:46.250Z,2.00
2019-04-01T16:55:47.913Z,1.98
2019-04-01T17:00:49.482Z,3.33
2019-04-01T17:05:51.085Z,2.10
2019-04-01T17:10:52.653Z,2.35
2019-04-01T17:15:54.392Z,1.98
2019-04-01T17:20:55.967Z,2.30
2019-04-01T17:25:57.574Z,2.13
2019-04-01T17:30:59.275Z,2.63
2019-04-01T17:36:00.838Z,1.60
2019-04-01T17:41:02.675Z,2.20
2019-04-01T17:46:04.414Z,1.90
2019-04-01T17:51:06.140Z,2.17
2019-04-01T17:56:07.896Z,1.83
2019-04-01T18:01:10.563Z,1.77
2019-04-01T18:06:12.810Z,2.50
2019-04-01T18:11:16.154Z,2.30
2019-04-01T18:16:17.992Z,5.17
2019-04-01T18:21:19.931Z,2.50
2019-04-01T18:26:21.532Z,2.13
2019-04-01T18:31:23.178Z,2.00
2019-04-01T18:36:24.792Z,3.17
2019-04-01T18:41:26.365Z,1.97
2019-04-01T18:46:28.089Z,1.97
2019-04-01T18:51:29.721Z,2.00
2019-04-01T18:56:31.317Z,2.40
2019-04-01T19:01:33.012Z,2.30
2019-04-01T19:06:35.191Z,2.27
2019-04-01T19:11:38.106Z,2.53
2019-04-01T19:16:39.948Z,2.00
2019-04-01T19:21:41.520Z,2.00
2019-04-01T19:26:43.145Z,2.20
2019-04-01T19:31:44.870Z,2.00
2019-04-01T19:36:46.428Z,2.63
2019-04-01T19:41:48.990Z,2.27
2019-04-01T19:46:50.694Z,2.00
2019-04-01T19:51:52.256Z,2.27
2019-04-01T19:56:53.844Z,2.20
2019-04-01T20:01:55.496Z,2.77
2019-04-01T20:06:57.039Z,2.63
2019-04-01T20:11:58.593Z,2.10
2019-04-01T20:17:02.034Z,2.10
2019-04-01T20:22:06.110Z,2.20
2019-04-01T20:27:07.683Z,2.70
2019-04-01T20:32:17.094Z,2.60
2019-04-01T20:37:13.621Z,2.00
2019-04-01T20:42:17.086Z,1.77
2019-04-01T20:47:18.750Z,2.50
2019-04-01T20:52:21.459Z,2.00
2019-04-01T20:57:23.254Z,2.20
2019-04-01T21:02:24.766Z,1.90
2019-04-01T21:07:26.318Z,2.17
2019-04-01T21:12:27.886Z,2.23
2019-04-01T21:17:29.539Z,2.60
2019-04-01T21:22:31.104Z,2.40
2019-04-01T21:27:32.643Z,2.30
2019-04-01T21:32:34.358Z,2.33
2019-04-01T21:37:36.092Z,2.60
2019-04-01T21:42:37.813Z,2.40
2019-04-01T21:47:40.196Z,2.83
2019-04-01T21:52:42.705Z,2.53
2019-04-01T21:57:44.403Z,2.43
2019-04-01T22:02:46.145Z,2.43
2019-04-01T22:07:47.859Z,2.33
2019-04-01T22:12:52.369Z,2.63
2019-04-01T22:17:53.146Z,2.50
2019-04-01T22:22:54.714Z,2.70
2019-04-01T22:27:56.388Z,2.40
2019-04-01T22:32:58.062Z,2.57
2019-04-01T22:37:59.763Z,2.70
2019-04-01T22:43:01.439Z,2.50
2019-04-01T22:48:03.276Z,2.83
2019-04-01T22:53:05.134Z,2.57
2019-04-01T22:58:06.826Z,2.50
2019-04-01T23:03:08.389Z,2.40
2019-04-01T23:08:10.056Z,2.67
2019-04-01T23:13:11.747Z,2.60
2019-04-01T23:18:13.423Z,3.00
2019-04-01T23:23:15.121Z,2.60
2019-04-01T23:28:16.799Z,2.77
2019-04-01T23:33:18.469Z,2.43
2019-04-01T23:38:20.123Z,2.63
2019-04-01T23:43:21.684Z,2.60
2019-04-01T23:48:23.274Z,2.87
2019-04-01T23:53:24.821Z,2.67
2019-04-01T23:58:26.502Z,3.03
